createdAt,value
2019-02-26T00:01:07.234Z,204.47
2019-02-26T00:04:11.610Z,188.23
2019-02-26T00:07:18.287Z,180.50
2019-02-26T00:10:24.591Z,191.40
2019-02-26T00:13:29.566Z,188.37
2019-02-26T00:16:37.693Z,185.07
2019-02-26T00:19:39.863Z,180.43
2019-02-26T00:22:44.102Z,183.10
2019-02-26T00:25:48.427Z,182.83
2019-02-26T00:28:52.716Z,182.67
2019-02-26T00:31:57.773Z,167.77
2019-02-26T00:35:04.149Z,164.60
2019-02-26T00:38:08.956Z,167.30
2019-02-26T00:41:14.219Z,157.60
2019-02-26T00:44:18.641Z,155.17
2019-02-26T00:47:24.401Z,165.90
2019-02-26T00:50:30.369Z,160.63
2019-02-26T00:53:36.163Z,149.13
2019-02-26T00:56:41.126Z,153.53
2019-02-26T00:59:46.417Z,144.73
2019-02-26T01:02:51.609Z,141.70
2019-02-26T01:05:57.053Z,149.33
2019-02-26T01:09:03.753Z,148.00
2019-02-26T01:12:09.199Z,143.60
2019-02-26T01:15:14.139Z,134.50
2019-02-26T01:18:20.247Z,133.03
2019-02-26T01:21:26.799Z,139.37
2019-02-26T01:24:32.650Z,135.17
2019-02-26T01:27:36.625Z,139.80
2019-02-26T01:30:41.015Z,142.97
2019-02-26T01:33:46.768Z,142.77
2019-02-26T01:36:51.217Z,134.07
2019-02-26T01:39:55.565Z,135.47
2019-02-26T01:43:02.576Z,142.17
2019-02-26T01:46:07.791Z,157.93
2019-02-26T01:49:11.979Z,140.77
2019-02-26T01:52:17.466Z,135.77
2019-02-26T01:55:22.953Z,125.70
2019-02-26T01:58:27.844Z,126.97
2019-02-26T02:01:32.138Z,122.70
2019-02-26T02:04:38.644Z,117.17
2019-02-26T02:07:46.068Z,118.53
2019-02-26T02:10:51.402Z,110.07
2019-02-26T02:13:54.545Z,120.67
2019-02-26T02:16:58.887Z,108.90
2019-02-26T02:20:07.699Z,108.10
2019-02-26T02:23:09.351Z,103.37
2019-02-26T02:26:15.561Z,97.87
2019-02-26T02:29:21.514Z,96.37
2019-02-26T02:32:26.639Z,100.77
2019-02-26T02:35:31.400Z,98.53
2019-02-26T02:38:37.096Z,94.03
2019-02-26T02:41:42.102Z,94.83
2019-02-26T02:44:49.431Z,98.97
2019-02-26T02:47:57.719Z,90.37
2019-02-26T02:51:01.779Z,95.20
2019-02-26T02:54:05.639Z,81.40
2019-02-26T02:57:10.131Z,78.83
2019-02-26T03:00:15.171Z,83.90
2019-02-26T03:03:19.531Z,82.70
2019-02-26T03:06:24.261Z,89.40
2019-02-26T03:09:31.755Z,76.93
2019-02-26T03:12:35.629Z,73.07
2019-02-26T03:15:39.969Z,77.40
2019-02-26T03:18:44.281Z,83.80
2019-02-26T03:21:49.715Z,73.83
2019-02-26T03:24:57.068Z,74.27
2019-02-26T03:28:00.591Z,69.07
2019-02-26T03:31:04.875Z,72.00
2019-02-26T03:34:14.621Z,72.40
2019-02-26T03:37:15.241Z,68.17
2019-02-26T03:40:20.897Z,78.00
2019-02-26T03:43:25.506Z,65.47
2019-02-26T03:46:29.725Z,64.53
2019-02-26T03:49:35.082Z,67.27
2019-02-26T03:52:39.435Z,70.67
2019-02-26T03:55:44.031Z,72.03
2019-02-26T03:58:52.157Z,72.77
2019-02-26T04:01:54.439Z,65.47
2019-02-26T04:05:00.773Z,71.50
2019-02-26T04:08:04.618Z,66.40
2019-02-26T04:11:08.956Z,77.60
2019-02-26T04:14:15.341Z,75.77
2019-02-26T04:17:23.185Z,70.70
2019-02-26T04:20:27.739Z,74.83
2019-02-26T04:23:30.920Z,76.77
2019-02-26T04:27:17.955Z,73.33
2019-02-26T04:30:57.039Z,69.07
2019-02-26T04:34:16.218Z,75.20
2019-02-26T04:37:55.769Z,69.40
2019-02-26T04:41:17.818Z,69.17
2019-02-26T04:44:55.217Z,64.10
2019-02-26T04:48:00.638Z,64.87
2019-02-26T04:51:04.493Z,70.00
2019-02-26T04:54:08.766Z,70.43
2019-02-26T04:57:13.139Z,64.90
2019-02-26T05:00:17.358Z,69.10
2019-02-26T05:03:21.734Z,67.83
2019-02-26T05:06:26.381Z,66.77
2019-02-26T05:09:32.580Z,71.57
2019-02-26T05:12:37.928Z,64.23
2019-02-26T05:15:43.638Z,74.80
2019-02-26T05:18:49.587Z,77.30
2019-02-26T05:21:55.980Z,70.67
2019-02-26T05:25:00.053Z,70.77
2019-02-26T05:28:06.552Z,73.17
2019-02-26T05:31:12.477Z,62.43
2019-02-26T05:34:18.193Z,73.00
2019-02-26T05:37:22.922Z,75.23
2019-02-26T05:40:27.288Z,72.63
2019-02-26T05:43:33.954Z,67.80
2019-02-26T05:46:37.479Z,76.70
2019-02-26T05:49:43.791Z,74.27
2019-02-26T05:52:50.409Z,65.97
2019-02-26T05:55:55.966Z,74.03
2019-02-26T05:59:02.078Z,70.03
2019-02-26T06:02:05.866Z,69.17
2019-02-26T06:05:11.898Z,68.23
2019-02-26T06:08:16.238Z,67.20
2019-02-26T06:11:20.593Z,70.73
2019-02-26T06:14:27.208Z,68.47
2019-02-26T06:17:30.799Z,68.37
2019-02-26T06:20:36.623Z,70.83
2019-02-26T06:23:43.109Z,62.67
2019-02-26T06:26:47.102Z,62.50
2019-02-26T06:29:55.094Z,62.80
2019-02-26T06:33:02.046Z,60.57
2019-02-26T06:36:04.703Z,69.60
2019-02-26T06:39:09.474Z,66.70
2019-02-26T06:42:14.466Z,69.30
2019-02-26T06:45:18.933Z,65.00
2019-02-26T06:48:25.041Z,69.63
2019-02-26T06:51:30.772Z,65.63
2019-02-26T06:54:35.376Z,62.17
2019-02-26T06:57:41.403Z,69.73
2019-02-26T07:00:47.669Z,67.97
2019-02-26T07:03:56.171Z,66.63
2019-02-26T07:07:01.954Z,58.87
2019-02-26T07:10:08.220Z,59.17
2019-02-26T07:13:14.106Z,61.10
2019-02-26T07:16:20.721Z,59.80
2019-02-26T07:19:25.876Z,60.80
2019-02-26T07:22:30.369Z,58.07
2019-02-26T07:25:37.028Z,68.67
2019-02-26T07:28:41.567Z,69.47
2019-02-26T07:31:49.044Z,62.43
2019-02-26T07:34:53.257Z,65.17
2019-02-26T07:37:59.466Z,61.80
2019-02-26T07:41:04.185Z,66.60
2019-02-26T07:44:15.414Z,67.00
2019-02-26T07:47:15.578Z,70.63
2019-02-26T07:50:19.973Z,60.77
2019-02-26T07:53:24.644Z,61.33
2019-02-26T07:56:32.071Z,60.33
2019-02-26T07:59:36.969Z,65.87
2019-02-26T08:02:41.046Z,58.03
2019-02-26T08:05:45.311Z,64.60
2019-02-26T08:08:49.596Z,62.47
2019-02-26T08:11:53.773Z,60.40
2019-02-26T08:14:58.146Z,64.63
2019-02-26T08:18:03.464Z,56.47
2019-02-26T08:21:08.508Z,70.07
2019-02-26T08:24:14.774Z,63.90
2019-02-26T08:27:18.876Z,57.13
2019-02-26T08:30:25.569Z,53.43
2019-02-26T08:33:29.347Z,56.50
2019-02-26T08:36:33.619Z,56.10
2019-02-26T08:39:38.706Z,56.53
2019-02-26T08:42:43.173Z,54.73
2019-02-26T08:45:47.500Z,55.67
2019-02-26T08:48:51.831Z,53.57
2019-02-26T08:51:56.145Z,49.13
2019-02-26T08:55:00.494Z,50.60
2019-02-26T08:58:04.858Z,50.80
2019-02-26T09:01:09.191Z,51.33
2019-02-26T09:04:14.529Z,49.70
2019-02-26T09:07:21.316Z,50.87
2019-02-26T09:10:25.611Z,47.17
2019-02-26T09:13:31.631Z,56.73
2019-02-26T09:16:35.915Z,46.17
2019-02-26T09:19:40.276Z,48.67
2019-02-26T09:22:48.008Z,44.13
2019-02-26T09:25:54.190Z,49.87
2019-02-26T09:28:57.167Z,46.70
2019-02-26T09:32:01.620Z,56.77
2019-02-26T09:35:06.669Z,42.50
2019-02-26T09:38:12.360Z,45.53
2019-02-26T09:41:18.862Z,46.90
2019-02-26T09:44:23.985Z,41.90
2019-02-26T09:47:32.884Z,45.00
2019-02-26T09:50:36.717Z,43.43
2019-02-26T09:53:41.135Z,41.77
2019-02-26T09:56:45.461Z,38.60
2019-02-26T09:59:51.678Z,40.77
2019-02-26T10:02:55.792Z,43.87
2019-02-26T10:06:00.250Z,42.67
2019-02-26T10:09:08.392Z,37.60
2019-02-26T10:12:15.111Z,38.17
2019-02-26T10:15:18.310Z,37.63
2019-02-26T10:18:23.839Z,39.60
2019-02-26T10:21:28.649Z,45.33
2019-02-26T10:24:35.306Z,37.03
2019-02-26T10:27:41.373Z,38.00
2019-02-26T10:30:45.500Z,41.70
2019-02-26T10:33:50.822Z,39.47
2019-02-26T10:36:55.736Z,42.30
2019-02-26T10:40:00.093Z,39.27
2019-02-26T10:43:04.637Z,41.83
2019-02-26T10:46:08.905Z,46.93
2019-02-26T10:49:13.280Z,40.43
2019-02-26T10:52:19.416Z,41.47
2019-02-26T10:55:28.145Z,36.50
2019-02-26T10:58:29.593Z,36.70
2019-02-26T11:01:34.035Z,34.50
2019-02-26T11:04:41.324Z,36.67
2019-02-26T11:07:44.337Z,37.07
2019-02-26T11:10:50.259Z,37.67
2019-02-26T11:13:54.692Z,47.47
2019-02-26T11:16:58.967Z,38.37
2019-02-26T11:20:04.577Z,36.97
2019-02-26T11:23:13.266Z,36.57
2019-02-26T11:26:18.063Z,33.60
2019-02-26T11:29:21.374Z,33.03
2019-02-26T11:32:27.808Z,33.10
2019-02-26T11:35:31.663Z,32.90
2019-02-26T11:38:39.026Z,33.67
2019-02-26T11:41:41.991Z,27.13
2019-02-26T11:44:46.293Z,29.20
2019-02-26T11:47:50.628Z,29.30
2019-02-26T11:50:54.966Z,29.40
2019-02-26T11:54:00.054Z,29.57
2019-02-26T11:57:08.043Z,25.73
2019-02-26T12:00:24.215Z,27.00
2019-02-26T12:03:24.900Z,32.97
2019-02-26T12:06:27.898Z,27.10
2019-02-26T12:09:35.030Z,26.10
2019-02-26T12:12:38.343Z,27.87
2019-02-26T12:15:42.857Z,27.90
2019-02-26T12:18:47.230Z,22.97
2019-02-26T12:21:52.752Z,31.30
2019-02-26T12:24:58.769Z,27.27
2019-02-26T12:28:05.299Z,26.00
2019-02-26T12:31:12.660Z,24.47
2019-02-26T12:34:17.449Z,23.33
2019-02-26T12:37:21.570Z,24.23
2019-02-26T12:40:25.873Z,23.53
2019-02-26T12:43:30.793Z,22.43
2019-02-26T12:46:38.041Z,25.53
2019-02-26T12:49:45.057Z,23.67
2019-02-26T12:52:51.606Z,26.83
2019-02-26T12:55:56.508Z,21.80
2019-02-26T12:59:00.522Z,25.40
2019-02-26T13:02:06.603Z,20.80
2019-02-26T13:05:13.397Z,21.47
2019-02-26T13:08:19.599Z,20.37
2019-02-26T13:11:24.993Z,27.23
2019-02-26T13:14:29.163Z,20.33
2019-02-26T13:17:34.826Z,21.53
2019-02-26T13:20:39.065Z,20.87
2019-02-26T13:23:43.372Z,22.97
2019-02-26T13:26:51.066Z,19.43
2019-02-26T13:29:56.921Z,23.63
2019-02-26T13:33:00.970Z,22.17
2019-02-26T13:36:05.994Z,19.67
2019-02-26T13:39:10.301Z,17.07
2019-02-26T13:42:19.165Z,17.03
2019-02-26T13:45:21.514Z,21.30
2019-02-26T13:48:25.903Z,17.50
2019-02-26T13:51:30.236Z,18.83
2019-02-26T13:54:34.588Z,15.77
2019-02-26T13:57:38.959Z,16.60
2019-02-26T14:00:43.453Z,15.00
2019-02-26T14:03:47.747Z,15.40
2019-02-26T14:06:52.117Z,13.93
2019-02-26T14:09:56.751Z,16.27
2019-02-26T14:13:01.139Z,14.03
2019-02-26T14:16:05.556Z,14.63
2019-02-26T14:19:09.944Z,14.07
2019-02-26T14:22:14.299Z,16.90
2019-02-26T14:25:18.699Z,14.07
2019-02-26T14:28:23.211Z,11.30
2019-02-26T14:31:27.698Z,14.60
2019-02-26T14:34:32.302Z,13.20
2019-02-26T14:37:36.655Z,15.77
2019-02-26T14:40:41.061Z,13.43
2019-02-26T14:43:45.507Z,14.50
2019-02-26T14:46:49.950Z,15.13
2019-02-26T14:49:54.546Z,12.20
2019-02-26T14:52:58.964Z,13.90
2019-02-26T14:56:03.348Z,12.10
2019-02-26T14:59:07.696Z,13.77
2019-02-26T15:02:12.036Z,14.50
2019-02-26T15:05:16.349Z,15.47
2019-02-26T15:08:20.717Z,17.17
2019-02-26T15:11:25.166Z,20.57
2019-02-26T15:14:29.559Z,18.67
2019-02-26T15:17:34.002Z,18.00
2019-02-26T15:20:38.410Z,18.73
2019-02-26T15:23:42.664Z,17.03
2019-02-26T15:26:47.000Z,21.17
2019-02-26T15:29:51.355Z,24.00
2019-02-26T15:32:57.248Z,18.63
2019-02-26T15:36:02.026Z,17.67
2019-02-26T15:39:07.449Z,20.37
2019-02-26T15:42:11.852Z,19.40
2019-02-26T15:45:18.708Z,23.03
2019-02-26T15:48:23.411Z,21.60
2019-02-26T15:51:27.825Z,22.70
2019-02-26T15:54:32.155Z,21.27
2019-02-26T15:57:36.545Z,17.87
2019-02-26T16:00:41.096Z,19.30
2019-02-26T16:03:45.664Z,20.40
2019-02-26T16:06:49.942Z,21.50
2019-02-26T16:09:56.291Z,22.80
2019-02-26T16:13:07.334Z,24.17
2019-02-26T16:16:11.716Z,18.33
2019-02-26T16:19:16.778Z,19.70
2019-02-26T16:22:21.209Z,18.53
2019-02-26T16:25:25.477Z,23.37
2019-02-26T16:28:29.781Z,22.57
2019-02-26T16:31:34.140Z,19.33
2019-02-26T16:34:38.783Z,21.43
2019-02-26T16:37:43.142Z,24.70
2019-02-26T16:40:47.424Z,29.80
2019-02-26T16:43:52.393Z,30.43
2019-02-26T16:46:56.800Z,24.73
2019-02-26T16:50:11.715Z,24.43
2019-02-26T16:53:08.053Z,24.40
2019-02-26T16:56:13.959Z,26.57
2019-02-26T16:59:18.422Z,23.97
2019-02-26T17:02:22.771Z,27.97
2019-02-26T17:05:27.194Z,27.67
2019-02-26T17:08:31.941Z,30.17
2019-02-26T17:11:36.352Z,28.40
2019-02-26T17:14:40.696Z,28.73
2019-02-26T17:17:45.102Z,26.63
2019-02-26T17:20:49.436Z,24.67
2019-02-26T17:23:53.810Z,26.50
2019-02-26T17:26:58.331Z,26.73
2019-02-26T17:30:02.912Z,31.43
2019-02-26T17:33:11.258Z,29.90
2019-02-26T17:36:13.246Z,32.73
2019-02-26T17:39:17.539Z,28.43
2019-02-26T17:42:22.256Z,33.07
2019-02-26T17:45:26.668Z,30.70
2019-02-26T17:48:31.778Z,34.67
2019-02-26T17:51:37.214Z,34.50
2019-02-26T17:54:42.043Z,34.70
2019-02-26T17:57:46.417Z,32.83
2019-02-26T18:00:54.587Z,31.00
2019-02-26T18:03:59.006Z,45.57
2019-02-26T18:07:03.427Z,47.57
2019-02-26T18:10:12.535Z,54.77
2019-02-26T18:13:20.499Z,76.93
2019-02-26T18:16:22.721Z,67.97
2019-02-26T18:19:27.125Z,78.87
2019-02-26T18:22:31.705Z,103.47
2019-02-26T18:25:36.281Z,82.43
2019-02-26T18:28:40.649Z,73.20
2019-02-26T18:31:45.038Z,71.07
2019-02-26T18:34:49.342Z,88.57
2019-02-26T18:37:54.978Z,83.83
2019-02-26T18:41:00.769Z,77.80
2019-02-26T18:44:04.627Z,77.47
2019-02-26T18:47:08.920Z,75.40
2019-02-26T18:50:13.446Z,76.00
2019-02-26T18:53:17.804Z,79.23
2019-02-26T18:56:22.194Z,68.00
2019-02-26T18:59:26.498Z,76.17
2019-02-26T19:02:30.858Z,77.87
2019-02-26T19:05:35.275Z,79.83
2019-02-26T19:08:39.981Z,79.43
2019-02-26T19:11:44.466Z,72.10
2019-02-26T19:14:48.871Z,77.07
2019-02-26T19:17:53.929Z,74.57
2019-02-26T19:20:58.269Z,71.93
2019-02-26T19:24:04.563Z,70.57
2019-02-26T19:27:08.678Z,75.33
2019-02-26T19:30:15.094Z,72.10
2019-02-26T19:33:21.773Z,87.27
2019-02-26T19:36:25.737Z,69.50
2019-02-26T19:39:33.522Z,74.63
2019-02-26T19:42:36.253Z,76.97
2019-02-26T19:45:43.969Z,74.23
2019-02-26T19:48:48.952Z,66.70
2019-02-26T19:51:57.423Z,68.50
2019-02-26T19:55:01.719Z,67.87
2019-02-26T19:58:07.102Z,61.80
2019-02-26T20:01:11.832Z,74.93
2019-02-26T20:04:16.276Z,69.03
2019-02-26T20:07:20.742Z,65.03
2019-02-26T20:10:25.459Z,65.87
2019-02-26T20:13:31.754Z,64.63
2019-02-26T20:16:36.980Z,71.17
2019-02-26T20:19:41.454Z,68.33
2019-02-26T20:22:45.956Z,65.93
2019-02-26T20:25:50.423Z,71.17
2019-02-26T20:28:54.822Z,71.83
2019-02-26T20:31:59.851Z,72.50
2019-02-26T20:35:04.647Z,97.53
2019-02-26T20:38:09.007Z,105.43
2019-02-26T20:41:13.282Z,123.30
2019-02-26T20:44:18.607Z,144.13
2019-02-26T20:47:25.453Z,146.73
2019-02-26T20:50:29.939Z,148.87
2019-02-26T20:53:36.646Z,156.30
2019-02-26T20:56:40.934Z,154.50
2019-02-26T20:59:45.353Z,146.60
2019-02-26T21:02:49.652Z,133.67
2019-02-26T21:05:53.912Z,133.97
2019-02-26T21:08:58.360Z,136.10
2019-02-26T21:12:02.763Z,131.23
2019-02-26T21:15:13.581Z,132.50
2019-02-26T21:18:15.851Z,121.33
2019-02-26T21:21:20.453Z,130.27
2019-02-26T21:24:25.017Z,126.77
2019-02-26T21:27:29.354Z,122.43
2019-02-26T21:30:33.753Z,126.80
2019-02-26T21:33:38.225Z,117.83
2019-02-26T21:36:42.454Z,117.47
2019-02-26T21:39:46.738Z,120.27
2019-02-26T21:42:51.145Z,121.03
2019-02-26T21:45:55.524Z,127.93
2019-02-26T21:48:59.895Z,117.83
2019-02-26T21:52:08.715Z,122.90
2019-02-26T21:55:12.334Z,124.10
2019-02-26T21:58:16.596Z,120.87
2019-02-26T22:01:20.900Z,122.47
2019-02-26T22:04:25.293Z,121.03
2019-02-26T22:07:29.710Z,137.83
2019-02-26T22:10:34.050Z,124.73
2019-02-26T22:13:38.371Z,121.57
2019-02-26T22:16:43.213Z,141.33
2019-02-26T22:19:47.600Z,128.50
2019-02-26T22:22:51.949Z,126.20
2019-02-26T22:25:56.571Z,123.67
2019-02-26T22:29:00.998Z,124.43
2019-02-26T22:32:05.370Z,121.37
2019-02-26T22:35:10.487Z,127.33
2019-02-26T22:38:15.441Z,122.33
2019-02-26T22:41:20.374Z,128.50
2019-02-26T22:44:24.756Z,126.27
2019-02-26T22:47:29.107Z,122.80
2019-02-26T22:50:33.409Z,125.03
2019-02-26T22:53:37.595Z,109.47
2019-02-26T22:56:41.954Z,125.77
2019-02-26T22:59:46.326Z,125.57
2019-02-26T23:02:50.737Z,121.83
2019-02-26T23:05:58.786Z,125.37
2019-02-26T23:09:02.280Z,127.10
2019-02-26T23:12:06.760Z,129.80
2019-02-26T23:15:11.986Z,129.83
2019-02-26T23:18:17.629Z,131.50
2019-02-26T23:21:22.412Z,135.53
2019-02-26T23:24:28.018Z,131.53
2019-02-26T23:27:32.967Z,131.63
2019-02-26T23:30:37.332Z,130.70
2019-02-26T23:33:41.727Z,135.60
2019-02-26T23:36:46.112Z,127.97
2019-02-26T23:39:51.037Z,128.93
2019-02-26T23:42:56.622Z,134.30
2019-02-26T23:46:00.903Z,135.13
2019-02-26T23:49:05.483Z,133.97
2019-02-26T23:52:09.858Z,128.90
2019-02-26T23:55:14.116Z,126.27
2019-02-26T23:58:18.410Z,131.87
